sensor_id;sensor_type;location;lat;lon;timestamp;temperature;humidity
10070;DHT22;5074;53.720;10.014;2023-05-10T00:00:16;13.80;97.70
10070;DHT22;5074;53.720;10.014;2023-05-10T00:02:44;13.80;98.30
10070;DHT22;5074;53.720;10.014;2023-05-10T00:05:12;13.70;98.40
10070;DHT22;5074;53.720;10.014;2023-05-10T00:07:40;13.70;98.40
10070;DHT22;5074;53.720;10.014;2023-05-10T00:10:11;13.60;98.80
10070;DHT22;5074;53.720;10.014;2023-05-10T00:12:41;13.60;98.90
10070;DHT22;5074;53.720;10.014;2023-05-10T00:15:09;13.60;98.80
10070;DHT22;5074;53.720;10.014;2023-05-10T00:17:37;13.50;98.80
10070;DHT22;5074;53.720;10.014;2023-05-10T00:20:06;13.50;99.00
10070;DHT22;5074;53.720;10.014;2023-05-10T00:22:34;13.50;99.40
10070;DHT22;5074;53.720;10.014;2023-05-10T00:25:03;13.40;99.20
10070;DHT22;5074;53.720;10.014;2023-05-10T00:27:32;13.40;99.80
10070;DHT22;5074;53.720;10.014;2023-05-10T00:30:02;13.40;99.50
10070;DHT22;5074;53.720;10.014;2023-05-10T00:32:30;13.40;99.50
10070;DHT22;5074;53.720;10.014;2023-05-10T00:34:58;13.40;99.80
10070;DHT22;5074;53.720;10.014;2023-05-10T00:37:26;13.40;99.90
10070;DHT22;5074;53.720;10.014;2023-05-10T00:39:54;13.30;99.90
10070;DHT22;5074;53.720;10.014;2023-05-10T00:42:22;13.30;99.90
10070;DHT22;5074;53.720;10.014;2023-05-10T00:44:50;13.30;99.90
10070;DHT22;5074;53.720;10.014;2023-05-10T00:47:20;13.30;99.90
10070;DHT22;5074;53.720;10.014;2023-05-10T00:49:48;13.30;99.90
10070;DHT22;5074;53.720;10.014;2023-05-10T00:52:16;13.30;99.90
10070;DHT22;5074;53.720;10.014;2023-05-10T00:54:44;13.20;99.90
10070;DHT22;5074;53.720;10.014;2023-05-10T00:57:12;13.20;99.90
10070;DHT22;5074;53.720;10.014;2023-05-10T00:59:40;13.20;99.90
10070;DHT22;5074;53.720;10.014;2023-05-10T01:02:08;13.10;99.90
10070;DHT22;5074;53.720;10.014;2023-05-10T01:04:38;13.10;99.90
10070;DHT22;5074;53.720;10.014;2023-05-10T01:07:07;13.00;99.90
10070;DHT22;5074;53.720;10.014;2023-05-10T01:09:35;12.90;99.90
10070;DHT22;5074;53.720;10.014;2023-05-10T01:12:03;12.90;99.90
10070;DHT22;5074;53.720;10.014;2023-05-10T01:14:33;12.90;99.90
10070;DHT22;5074;53.720;10.014;2023-05-10T01:17:03;12.80;99.90
10070;DHT22;5074;53.720;10.014;2023-05-10T01:19:34;12.80;99.90
10070;DHT22;5074;53.720;10.014;2023-05-10T01:22:08;12.70;99.90
10070;DHT22;5074;53.720;10.014;2023-05-10T01:28:08;12.60;99.90
10070;DHT22;5074;53.720;10.014;2023-05-10T01:31:03;12.60;99.90
10070;DHT22;5074;53.720;10.014;2023-05-10T01:33:43;12.50;99.90
10070;DHT22;5074;53.720;10.014;2023-05-10T01:36:19;12.50;99.90
10070;DHT22;5074;53.720;10.014;2023-05-10T01:38:56;12.40;99.90
10070;DHT22;5074;53.720;10.014;2023-05-10T01:41:37;12.40;99.90
10070;DHT22;5074;53.720;10.014;2023-05-10T01:44:16;12.40;99.90
10070;DHT22;5074;53.720;10.014;2023-05-10T01:46:48;12.40;99.90
10070;DHT22;5074;53.720;10.014;2023-05-10T01:49:23;12.40;99.90
10070;DHT22;5074;53.720;10.014;2023-05-10T01:51:54;12.40;99.90
10070;DHT22;5074;53.720;10.014;2023-05-10T01:54:26;12.40;99.90
10070;DHT22;5074;53.720;10.014;2023-05-10T01:56:57;12.30;99.90
10070;DHT22;5074;53.720;10.014;2023-05-10T01:59:31;12.30;99.90
10070;DHT22;5074;53.720;10.014;2023-05-10T02:02:05;12.20;99.90
10070;DHT22;5074;53.720;10.014;2023-05-10T02:04:39;12.20;99.90
10070;DHT22;5074;53.720;10.014;2023-05-10T02:07:09;12.10;99.90
10070;DHT22;5074;53.720;10.014;2023-05-10T02:09:39;12.10;99.90
10070;DHT22;5074;53.720;10.014;2023-05-10T02:12:10;12.10;99.90
10070;DHT22;5074;53.720;10.014;2023-05-10T02:14:40;12.10;99.90
10070;DHT22;5074;53.720;10.014;2023-05-10T02:17:09;12.10;99.90
10070;DHT22;5074;53.720;10.014;2023-05-10T02:19:40;12.00;99.90
10070;DHT22;5074;53.720;10.014;2023-05-10T02:22:09;12.00;99.90
10070;DHT22;5074;53.720;10.014;2023-05-10T02:24:38;12.00;99.90
10070;DHT22;5074;53.720;10.014;2023-05-10T02:27:07;12.10;99.90
10070;DHT22;5074;53.720;10.014;2023-05-10T02:29:37;12.10;99.90
10070;DHT22;5074;53.720;10.014;2023-05-10T02:32:06;12.00;99.90
10070;DHT22;5074;53.720;10.014;2023-05-10T02:34:36;11.90;99.90
10070;DHT22;5074;53.720;10.014;2023-05-10T02:37:07;11.90;99.90
10070;DHT22;5074;53.720;10.014;2023-05-10T02:39:35;11.90;99.90
10070;DHT22;5074;53.720;10.014;2023-05-10T02:42:04;11.80;99.90
10070;DHT22;5074;53.720;10.014;2023-05-10T02:44:33;11.80;99.90
10070;DHT22;5074;53.720;10.014;2023-05-10T02:47:03;11.80;99.90
10070;DHT22;5074;53.720;10.014;2023-05-10T02:49:31;11.80;99.90
10070;DHT22;5074;53.720;10.014;2023-05-10T02:52:00;11.70;99.90
10070;DHT22;5074;53.720;10.014;2023-05-10T02:54:34;11.70;99.90
10070;DHT22;5074;53.720;10.014;2023-05-10T02:57:08;11.60;99.90
10070;DHT22;5074;53.720;10.014;2023-05-10T02:59:44;11.60;99.90
10070;DHT22;5074;53.720;10.014;2023-05-10T03:02:12;11.60;99.90
10070;DHT22;5074;53.720;10.014;2023-05-10T03:04:40;11.60;99.90
10070;DHT22;5074;53.720;10.014;2023-05-10T03:07:08;11.50;99.90
10070;DHT22;5074;53.720;10.014;2023-05-10T03:09:38;11.50;99.90
10070;DHT22;5074;53.720;10.014;2023-05-10T03:12:07;11.50;99.90
10070;DHT22;5074;53.720;10.014;2023-05-10T03:14:47;11.50;99.90
10070;DHT22;5074;53.720;10.014;2023-05-10T03:17:22;11.50;99.90
10070;DHT22;5074;53.720;10.014;2023-05-10T03:19:54;11.50;99.90
10070;DHT22;5074;53.720;10.014;2023-05-10T03:22:24;11.50;99.90
10070;DHT22;5074;53.720;10.014;2023-05-10T03:24:55;11.50;99.90
10070;DHT22;5074;53.720;10.014;2023-05-10T03:27:26;11.50;99.90
10070;DHT22;5074;53.720;10.014;2023-05-10T03:29:55;11.40;99.90
10070;DHT22;5074;53.720;10.014;2023-05-10T03:32:23;11.50;99.90
10070;DHT22;5074;53.720;10.014;2023-05-10T03:34:53;11.50;99.90
10070;DHT22;5074;53.720;10.014;2023-05-10T03:37:21;11.40;99.90
10070;DHT22;5074;53.720;10.014;2023-05-10T03:39:49;11.30;99.90
10070;DHT22;5074;53.720;10.014;2023-05-10T03:42:19;11.40;99.90
10070;DHT22;5074;53.720;10.014;2023-05-10T03:44:47;11.30;99.90
10070;DHT22;5074;53.720;10.014;2023-05-10T03:47:15;11.40;99.90
10070;DHT22;5074;53.720;10.014;2023-05-10T03:49:43;11.30;99.90
10070;DHT22;5074;53.720;10.014;2023-05-10T03:52:11;11.30;99.90
10070;DHT22;5074;53.720;10.014;2023-05-10T03:54:39;11.30;99.90
10070;DHT22;5074;53.720;10.014;2023-05-10T03:57:07;11.30;99.90
10070;DHT22;5074;53.720;10.014;2023-05-10T03:59:37;11.40;99.90
10070;DHT22;5074;53.720;10.014;2023-05-10T04:02:05;11.40;99.90
10070;DHT22;5074;53.720;10.014;2023-05-10T04:04:33;11.40;99.90
10070;DHT22;5074;53.720;10.014;2023-05-10T04:07:01;11.40;99.90
10070;DHT22;5074;53.720;10.014;2023-05-10T04:09:30;11.40;99.90
10070;DHT22;5074;53.720;10.014;2023-05-10T04:11:59;11.50;99.90
10070;DHT22;5074;53.720;10.014;2023-05-10T04:14:28;11.50;99.90
10070;DHT22;5074;53.720;10.014;2023-05-10T04:16:58;11.50;99.90
10070;DHT22;5074;53.720;10.014;2023-05-10T04:19:28;11.50;99.90
10070;DHT22;5074;53.720;10.014;2023-05-10T04:21:57;11.60;99.90
10070;DHT22;5074;53.720;10.014;2023-05-10T04:24:25;11.70;99.90
10070;DHT22;5074;53.720;10.014;2023-05-10T04:26:53;11.80;99.90
10070;DHT22;5074;53.720;10.014;2023-05-10T04:29:23;11.80;99.90
10070;DHT22;5074;53.720;10.014;2023-05-10T04:31:51;11.90;99.90
10070;DHT22;5074;53.720;10.014;2023-05-10T04:34:21;12.00;99.90
10070;DHT22;5074;53.720;10.014;2023-05-10T04:36:49;11.90;99.90
10070;DHT22;5074;53.720;10.014;2023-05-10T04:39:17;12.00;99.90
10070;DHT22;5074;53.720;10.014;2023-05-10T04:41:45;12.10;99.90
10070;DHT22;5074;53.720;10.014;2023-05-10T04:44:13;12.00;99.90
10070;DHT22;5074;53.720;10.014;2023-05-10T04:46:41;12.00;99.90
10070;DHT22;5074;53.720;10.014;2023-05-10T04:49:09;12.00;99.90
10070;DHT22;5074;53.720;10.014;2023-05-10T04:51:39;12.00;99.90
10070;DHT22;5074;53.720;10.014;2023-05-10T04:54:07;12.00;99.90
10070;DHT22;5074;53.720;10.014;2023-05-10T04:56:35;11.90;99.90
10070;DHT22;5074;53.720;10.014;2023-05-10T04:59:03;12.00;99.90
10070;DHT22;5074;53.720;10.014;2023-05-10T05:01:31;12.00;99.90
10070;DHT22;5074;53.720;10.014;2023-05-10T05:03:59;12.00;99.90
10070;DHT22;5074;53.720;10.014;2023-05-10T05:06:27;12.00;99.90
10070;DHT22;5074;53.720;10.014;2023-05-10T05:08:57;12.10;99.90
10070;DHT22;5074;53.720;10.014;2023-05-10T05:11:25;12.10;99.90
10070;DHT22;5074;53.720;10.014;2023-05-10T05:13:53;12.20;99.90
10070;DHT22;5074;53.720;10.014;2023-05-10T05:16:21;12.30;99.90
10070;DHT22;5074;53.720;10.014;2023-05-10T05:18:50;12.40;99.90
10070;DHT22;5074;53.720;10.014;2023-05-10T05:21:18;12.50;99.90
10070;DHT22;5074;53.720;10.014;2023-05-10T05:23:47;12.50;99.90
10070;DHT22;5074;53.720;10.014;2023-05-10T05:26:17;12.50;99.90
10070;DHT22;5074;53.720;10.014;2023-05-10T05:28:45;12.60;99.90
10070;DHT22;5074;53.720;10.014;2023-05-10T05:31:15;12.70;99.90
10070;DHT22;5074;53.720;10.014;2023-05-10T05:33:43;12.70;99.90
10070;DHT22;5074;53.720;10.014;2023-05-10T05:36:11;12.80;99.90
10070;DHT22;5074;53.720;10.014;2023-05-10T05:38:39;12.90;99.90
10070;DHT22;5074;53.720;10.014;2023-05-10T05:41:07;13.00;99.90
10070;DHT22;5074;53.720;10.014;2023-05-10T05:43:36;13.00;99.90
10070;DHT22;5074;53.720;10.014;2023-05-10T05:46:04;13.10;99.90
10070;DHT22;5074;53.720;10.014;2023-05-10T05:48:34;13.20;99.90
10070;DHT22;5074;53.720;10.014;2023-05-10T05:51:02;13.20;99.90
10070;DHT22;5074;53.720;10.014;2023-05-10T05:53:33;13.30;99.90
10070;DHT22;5074;53.720;10.014;2023-05-10T05:56:01;13.30;99.90
10070;DHT22;5074;53.720;10.014;2023-05-10T05:58:30;13.40;99.90
10070;DHT22;5074;53.720;10.014;2023-05-10T06:00:59;13.40;99.90
10070;DHT22;5074;53.720;10.014;2023-05-10T06:03:27;13.50;99.90
10070;DHT22;5074;53.720;10.014;2023-05-10T06:05:55;13.50;99.90
10070;DHT22;5074;53.720;10.014;2023-05-10T06:08:23;13.50;99.90
10070;DHT22;5074;53.720;10.014;2023-05-10T06:10:52;13.60;99.90
10070;DHT22;5074;53.720;10.014;2023-05-10T06:13:20;13.70;99.90
10070;DHT22;5074;53.720;10.014;2023-05-10T06:15:48;13.80;99.90
10070;DHT22;5074;53.720;10.014;2023-05-10T06:18:17;13.90;99.90
10070;DHT22;5074;53.720;10.014;2023-05-10T06:20:45;14.00;99.90
10070;DHT22;5074;53.720;10.014;2023-05-10T06:23:13;14.10;99.90
10070;DHT22;5074;53.720;10.014;2023-05-10T06:25:42;14.20;99.90
10070;DHT22;5074;53.720;10.014;2023-05-10T06:28:10;14.30;99.90
10070;DHT22;5074;53.720;10.014;2023-05-10T06:30:38;14.40;99.90
10070;DHT22;5074;53.720;10.014;2023-05-10T06:33:06;14.50;99.90
10070;DHT22;5074;53.720;10.014;2023-05-10T06:35:35;14.50;99.90
10070;DHT22;5074;53.720;10.014;2023-05-10T06:38:03;14.60;99.90
10070;DHT22;5074;53.720;10.014;2023-05-10T06:40:31;14.70;99.90
10070;DHT22;5074;53.720;10.014;2023-05-10T06:42:59;14.70;99.90
10070;DHT22;5074;53.720;10.014;2023-05-10T06:45:27;14.80;99.90
10070;DHT22;5074;53.720;10.014;2023-05-10T06:47:56;14.80;99.90
10070;DHT22;5074;53.720;10.014;2023-05-10T06:50:24;14.80;99.90
10070;DHT22;5074;53.720;10.014;2023-05-10T06:52:53;14.70;99.90
10070;DHT22;5074;53.720;10.014;2023-05-10T06:55:21;14.80;99.90
10070;DHT22;5074;53.720;10.014;2023-05-10T06:57:50;14.90;99.90
10070;DHT22;5074;53.720;10.014;2023-05-10T07:00:18;14.90;99.90
10070;DHT22;5074;53.720;10.014;2023-05-10T07:02:47;14.90;99.90
10070;DHT22;5074;53.720;10.014;2023-05-10T07:05:15;15.00;99.90
10070;DHT22;5074;53.720;10.014;2023-05-10T07:07:44;15.00;99.90
10070;DHT22;5074;53.720;10.014;2023-05-10T07:10:13;15.00;99.90
10070;DHT22;5074;53.720;10.014;2023-05-10T07:12:41;15.10;99.90
10070;DHT22;5074;53.720;10.014;2023-05-10T07:15:09;15.10;99.90
10070;DHT22;5074;53.720;10.014;2023-05-10T07:17:38;15.20;99.90
10070;DHT22;5074;53.720;10.014;2023-05-10T07:20:10;15.30;99.90
10070;DHT22;5074;53.720;10.014;2023-05-10T07:22:39;15.40;99.90
10070;DHT22;5074;53.720;10.014;2023-05-10T07:25:07;15.40;99.90
10070;DHT22;5074;53.720;10.014;2023-05-10T07:27:37;15.40;99.90
10070;DHT22;5074;53.720;10.014;2023-05-10T07:30:05;15.40;99.90
10070;DHT22;5074;53.720;10.014;2023-05-10T07:32:34;15.40;99.90
10070;DHT22;5074;53.720;10.014;2023-05-10T07:35:03;15.50;99.90
10070;DHT22;5074;53.720;10.014;2023-05-10T07:37:32;15.60;99.90
10070;DHT22;5074;53.720;10.014;2023-05-10T07:40:00;15.50;99.90
10070;DHT22;5074;53.720;10.014;2023-05-10T07:42:28;15.60;99.90
10070;DHT22;5074;53.720;10.014;2023-05-10T07:44:57;15.70;99.90
10070;DHT22;5074;53.720;10.014;2023-05-10T07:47:25;15.90;99.90
10070;DHT22;5074;53.720;10.014;2023-05-10T07:49:54;16.10;99.90
10070;DHT22;5074;53.720;10.014;2023-05-10T07:52:22;16.10;99.90
10070;DHT22;5074;53.720;10.014;2023-05-10T07:54:50;16.10;99.90
10070;DHT22;5074;53.720;10.014;2023-05-10T07:57:18;16.10;99.90
10070;DHT22;5074;53.720;10.014;2023-05-10T07:59:46;16.00;99.90
10070;DHT22;5074;53.720;10.014;2023-05-10T08:02:15;16.10;99.90
10070;DHT22;5074;53.720;10.014;2023-05-10T08:04:43;16.20;99.90
10070;DHT22;5074;53.720;10.014;2023-05-10T08:07:12;16.10;99.90
10070;DHT22;5074;53.720;10.014;2023-05-10T08:09:40;16.20;99.90
10070;DHT22;5074;53.720;10.014;2023-05-10T08:12:08;16.30;99.90
10070;DHT22;5074;53.720;10.014;2023-05-10T08:14:36;16.50;99.90
10070;DHT22;5074;53.720;10.014;2023-05-10T08:17:04;16.50;99.90
10070;DHT22;5074;53.720;10.014;2023-05-10T08:19:33;16.50;99.90
10070;DHT22;5074;53.720;10.014;2023-05-10T08:22:01;16.60;99.90
10070;DHT22;5074;53.720;10.014;2023-05-10T08:24:29;16.60;99.90
10070;DHT22;5074;53.720;10.014;2023-05-10T08:26:57;16.60;99.90
10070;DHT22;5074;53.720;10.014;2023-05-10T08:29:25;16.60;99.90
10070;DHT22;5074;53.720;10.014;2023-05-10T08:31:56;16.70;99.90
10070;DHT22;5074;53.720;10.014;2023-05-10T08:34:24;16.60;99.90
10070;DHT22;5074;53.720;10.014;2023-05-10T08:36:53;16.60;99.90
10070;DHT22;5074;53.720;10.014;2023-05-10T08:39:21;16.60;99.90
10070;DHT22;5074;53.720;10.014;2023-05-10T08:41:57;16.60;99.90
10070;DHT22;5074;53.720;10.014;2023-05-10T08:44:29;16.50;99.90
10070;DHT22;5074;53.720;10.014;2023-05-10T08:46:58;16.50;99.90
10070;DHT22;5074;53.720;10.014;2023-05-10T08:49:30;16.50;99.90
10070;DHT22;5074;53.720;10.014;2023-05-10T08:52:01;16.70;99.90
10070;DHT22;5074;53.720;10.014;2023-05-10T08:54:32;16.70;99.90
10070;DHT22;5074;53.720;10.014;2023-05-10T08:57:00;16.90;99.90
10070;DHT22;5074;53.720;10.014;2023-05-10T08:59:29;17.00;99.90
10070;DHT22;5074;53.720;10.014;2023-05-10T09:01:57;17.00;99.90
10070;DHT22;5074;53.720;10.014;2023-05-10T09:04:26;17.00;99.90
10070;DHT22;5074;53.720;10.014;2023-05-10T09:06:55;17.00;99.90
10070;DHT22;5074;53.720;10.014;2023-05-10T09:09:25;17.10;99.90
10070;DHT22;5074;53.720;10.014;2023-05-10T09:11:55;17.00;99.90
10070;DHT22;5074;53.720;10.014;2023-05-10T09:14:23;17.10;99.90
10070;DHT22;5074;53.720;10.014;2023-05-10T09:16:52;17.10;99.90
10070;DHT22;5074;53.720;10.014;2023-05-10T09:19:21;17.30;99.90
10070;DHT22;5074;53.720;10.014;2023-05-10T09:21:49;17.30;99.90
10070;DHT22;5074;53.720;10.014;2023-05-10T09:24:17;17.40;99.90
10070;DHT22;5074;53.720;10.014;2023-05-10T09:26:47;17.50;99.90
10070;DHT22;5074;53.720;10.014;2023-05-10T09:29:15;17.50;99.90
10070;DHT22;5074;53.720;10.014;2023-05-10T09:31:45;17.70;99.90
10070;DHT22;5074;53.720;10.014;2023-05-10T09:34:17;17.80;99.90
10070;DHT22;5074;53.720;10.014;2023-05-10T09:36:51;17.70;99.90
10070;DHT22;5074;53.720;10.014;2023-05-10T09:39:20;17.80;99.90
10070;DHT22;5074;53.720;10.014;2023-05-10T09:41:49;17.80;99.90
10070;DHT22;5074;53.720;10.014;2023-05-10T09:44:19;17.80;99.90
10070;DHT22;5074;53.720;10.014;2023-05-10T09:46:50;17.80;99.90
10070;DHT22;5074;53.720;10.014;2023-05-10T09:49:19;17.90;99.90
10070;DHT22;5074;53.720;10.014;2023-05-10T09:51:57;17.90;99.90
10070;DHT22;5074;53.720;10.014;2023-05-10T09:54:28;17.90;99.90
10070;DHT22;5074;53.720;10.014;2023-05-10T09:56:57;17.70;99.90
10070;DHT22;5074;53.720;10.014;2023-05-10T09:59:25;17.60;99.90
10070;DHT22;5074;53.720;10.014;2023-05-10T10:01:55;17.40;99.90
10070;DHT22;5074;53.720;10.014;2023-05-10T10:04:25;17.30;99.90
10070;DHT22;5074;53.720;10.014;2023-05-10T10:06:59;17.40;99.90
10070;DHT22;5074;53.720;10.014;2023-05-10T10:09:32;17.40;99.90
10070;DHT22;5074;53.720;10.014;2023-05-10T10:12:03;17.40;99.90
10070;DHT22;5074;53.720;10.014;2023-05-10T10:14:31;17.30;99.90
10070;DHT22;5074;53.720;10.014;2023-05-10T10:17:00;17.10;99.90
10070;DHT22;5074;53.720;10.014;2023-05-10T10:19:32;17.00;99.90
10070;DHT22;5074;53.720;10.014;2023-05-10T10:22:02;17.10;99.90
10070;DHT22;5074;53.720;10.014;2023-05-10T10:24:30;17.10;99.90
10070;DHT22;5074;53.720;10.014;2023-05-10T10:27:00;17.00;99.90
10070;DHT22;5074;53.720;10.014;2023-05-10T10:29:37;16.90;99.90
10070;DHT22;5074;53.720;10.014;2023-05-10T10:32:12;16.70;99.90
10070;DHT22;5074;53.720;10.014;2023-05-10T10:34:49;16.50;99.90
10070;DHT22;5074;53.720;10.014;2023-05-10T10:37:18;16.20;99.90
10070;DHT22;5074;53.720;10.014;2023-05-10T10:39:47;15.90;99.90
10070;DHT22;5074;53.720;10.014;2023-05-10T10:45:16;15.50;99.90
10070;DHT22;5074;53.720;10.014;2023-05-10T10:47:44;15.30;99.90
10070;DHT22;5074;53.720;10.014;2023-05-10T10:50:12;15.20;99.90
10070;DHT22;5074;53.720;10.014;2023-05-10T10:52:43;14.90;99.90
10070;DHT22;5074;53.720;10.014;2023-05-10T10:55:12;14.90;99.90
10070;DHT22;5074;53.720;10.014;2023-05-10T10:57:45;14.80;99.90
10070;DHT22;5074;53.720;10.014;2023-05-10T11:00:21;14.70;99.90
10070;DHT22;5074;53.720;10.014;2023-05-10T11:03:00;14.60;99.90
10070;DHT22;5074;53.720;10.014;2023-05-10T11:05:34;14.60;99.90
10070;DHT22;5074;53.720;10.014;2023-05-10T11:08:14;14.50;99.90
10070;DHT22;5074;53.720;10.014;2023-05-10T11:13:41;14.50;99.90
10070;DHT22;5074;53.720;10.014;2023-05-10T11:16:13;14.60;99.90
10070;DHT22;5074;53.720;10.014;2023-05-10T11:18:53;14.60;99.90
10070;DHT22;5074;53.720;10.014;2023-05-10T11:21:24;14.70;99.90
10070;DHT22;5074;53.720;10.014;2023-05-10T11:23:53;14.80;99.90
10070;DHT22;5074;53.720;10.014;2023-05-10T11:26:23;14.80;99.90
10070;DHT22;5074;53.720;10.014;2023-05-10T11:28:54;14.90;99.90
10070;DHT22;5074;53.720;10.014;2023-05-10T11:31:25;14.90;99.90
10070;DHT22;5074;53.720;10.014;2023-05-10T11:33:54;14.90;99.90
10070;DHT22;5074;53.720;10.014;2023-05-10T11:36:24;15.00;99.90
10070;DHT22;5074;53.720;10.014;2023-05-10T11:38:53;15.10;99.90
10070;DHT22;5074;53.720;10.014;2023-05-10T11:41:23;15.20;99.90
10070;DHT22;5074;53.720;10.014;2023-05-10T11:43:52;15.20;99.90
10070;DHT22;5074;53.720;10.014;2023-05-10T11:46:23;15.30;99.90
10070;DHT22;5074;53.720;10.014;2023-05-10T11:48:55;15.40;99.90
10070;DHT22;5074;53.720;10.014;2023-05-10T11:51:24;15.40;99.90
10070;DHT22;5074;53.720;10.014;2023-05-10T11:53:53;15.40;99.90
10070;DHT22;5074;53.720;10.014;2023-05-10T11:56:22;15.40;99.90
10070;DHT22;5074;53.720;10.014;2023-05-10T11:58:54;15.60;99.90
10070;DHT22;5074;53.720;10.014;2023-05-10T12:01:23;15.60;99.90
10070;DHT22;5074;53.720;10.014;2023-05-10T12:03:53;15.80;99.90
10070;DHT22;5074;53.720;10.014;2023-05-10T12:06:26;15.80;99.90
10070;DHT22;5074;53.720;10.014;2023-05-10T12:08:55;15.80;99.90
10070;DHT22;5074;53.720;10.014;2023-05-10T12:11:24;15.80;99.90
10070;DHT22;5074;53.720;10.014;2023-05-10T12:13:55;15.60;99.90
10070;DHT22;5074;53.720;10.014;2023-05-10T12:16:24;15.60;99.90
10070;DHT22;5074;53.720;10.014;2023-05-10T12:18:56;15.60;99.90
10070;DHT22;5074;53.720;10.014;2023-05-10T12:21:25;15.60;99.90
10070;DHT22;5074;53.720;10.014;2023-05-10T12:23:59;15.60;99.90
10070;DHT22;5074;53.720;10.014;2023-05-10T12:26:28;15.50;99.90
10070;DHT22;5074;53.720;10.014;2023-05-10T12:31:51;15.60;99.90
10070;DHT22;5074;53.720;10.014;2023-05-10T12:34:23;15.50;99.90
10070;DHT22;5074;53.720;10.014;2023-05-10T12:36:53;15.50;99.90
10070;DHT22;5074;53.720;10.014;2023-05-10T12:39:21;15.50;99.90
10070;DHT22;5074;53.720;10.014;2023-05-10T12:41:50;15.50;99.90
10070;DHT22;5074;53.720;10.014;2023-05-10T12:44:18;15.50;99.90
10070;DHT22;5074;53.720;10.014;2023-05-10T12:46:46;15.50;99.90
10070;DHT22;5074;53.720;10.014;2023-05-10T12:49:16;15.60;99.90
10070;DHT22;5074;53.720;10.014;2023-05-10T12:51:45;15.70;99.90
10070;DHT22;5074;53.720;10.014;2023-05-10T12:54:13;15.80;99.90
10070;DHT22;5074;53.720;10.014;2023-05-10T12:56:41;16.00;99.90
10070;DHT22;5074;53.720;10.014;2023-05-10T12:59:09;16.10;99.90
10070;DHT22;5074;53.720;10.014;2023-05-10T13:01:37;16.20;99.90
10070;DHT22;5074;53.720;10.014;2023-05-10T13:04:05;16.40;99.90
10070;DHT22;5074;53.720;10.014;2023-05-10T13:06:35;16.60;99.90
10070;DHT22;5074;53.720;10.014;2023-05-10T13:09:03;16.80;99.90
10070;DHT22;5074;53.720;10.014;2023-05-10T13:11:31;17.00;99.90
10070;DHT22;5074;53.720;10.014;2023-05-10T13:13:59;17.00;99.90
10070;DHT22;5074;53.720;10.014;2023-05-10T13:16:27;17.10;99.90
10070;DHT22;5074;53.720;10.014;2023-05-10T13:18:55;17.10;99.90
10070;DHT22;5074;53.720;10.014;2023-05-10T13:21:23;17.10;99.90
10070;DHT22;5074;53.720;10.014;2023-05-10T13:23:53;17.00;99.90
10070;DHT22;5074;53.720;10.014;2023-05-10T13:26:22;17.00;99.90
10070;DHT22;5074;53.720;10.014;2023-05-10T13:28:50;17.00;99.90
10070;DHT22;5074;53.720;10.014;2023-05-10T13:31:18;17.20;99.90
10070;DHT22;5074;53.720;10.014;2023-05-10T13:33:47;17.40;99.90
10070;DHT22;5074;53.720;10.014;2023-05-10T13:36:15;17.60;99.90
10070;DHT22;5074;53.720;10.014;2023-05-10T13:38:43;17.60;99.90
10070;DHT22;5074;53.720;10.014;2023-05-10T13:41:12;17.50;99.90
10070;DHT22;5074;53.720;10.014;2023-05-10T13:43:40;17.50;99.90
10070;DHT22;5074;53.720;10.014;2023-05-10T13:46:08;17.80;99.90
10070;DHT22;5074;53.720;10.014;2023-05-10T13:48:37;18.30;99.90
10070;DHT22;5074;53.720;10.014;2023-05-10T13:51:05;18.70;99.90
10070;DHT22;5074;53.720;10.014;2023-05-10T13:53:33;19.40;99.90
10070;DHT22;5074;53.720;10.014;2023-05-10T13:56:01;19.80;99.90
10070;DHT22;5074;53.720;10.014;2023-05-10T13:58:31;20.20;99.90
10070;DHT22;5074;53.720;10.014;2023-05-10T14:00:59;20.00;99.90
10070;DHT22;5074;53.720;10.014;2023-05-10T14:03:27;19.70;99.90
10070;DHT22;5074;53.720;10.014;2023-05-10T14:05:55;19.30;99.90
10070;DHT22;5074;53.720;10.014;2023-05-10T14:08:23;19.00;99.90
10070;DHT22;5074;53.720;10.014;2023-05-10T14:10:53;18.90;99.90
10070;DHT22;5074;53.720;10.014;2023-05-10T14:13:23;18.70;99.90
10070;DHT22;5074;53.720;10.014;2023-05-10T14:15:53;18.50;99.90
10070;DHT22;5074;53.720;10.014;2023-05-10T14:18:22;18.20;99.90
10070;DHT22;5074;53.720;10.014;2023-05-10T14:20:50;18.10;99.90
10070;DHT22;5074;53.720;10.014;2023-05-10T14:23:18;18.00;99.90
10070;DHT22;5074;53.720;10.014;2023-05-10T14:25:50;17.70;99.90
10070;DHT22;5074;53.720;10.014;2023-05-10T14:28:18;17.50;99.90
10070;DHT22;5074;53.720;10.014;2023-05-10T14:30:47;17.50;99.90
10070;DHT22;5074;53.720;10.014;2023-05-10T14:33:17;17.50;99.90
10070;DHT22;5074;53.720;10.014;2023-05-10T14:35:45;17.50;99.90
10070;DHT22;5074;53.720;10.014;2023-05-10T14:38:14;17.40;99.90
10070;DHT22;5074;53.720;10.014;2023-05-10T14:40:42;17.40;99.90
10070;DHT22;5074;53.720;10.014;2023-05-10T14:43:10;17.40;99.90
10070;DHT22;5074;53.720;10.014;2023-05-10T14:45:38;17.40;99.90
10070;DHT22;5074;53.720;10.014;2023-05-10T14:48:06;17.30;99.90
10070;DHT22;5074;53.720;10.014;2023-05-10T14:50:39;17.30;99.90
10070;DHT22;5074;53.720;10.014;2023-05-10T14:53:07;17.40;99.90
10070;DHT22;5074;53.720;10.014;2023-05-10T14:55:35;17.30;99.90
10070;DHT22;5074;53.720;10.014;2023-05-10T14:58:03;17.40;99.90
10070;DHT22;5074;53.720;10.014;2023-05-10T15:00:31;17.50;99.90
10070;DHT22;5074;53.720;10.014;2023-05-10T15:02:59;17.40;99.90
10070;DHT22;5074;53.720;10.014;2023-05-10T15:05:28;17.30;99.90
10070;DHT22;5074;53.720;10.014;2023-05-10T15:07:58;17.30;99.90
10070;DHT22;5074;53.720;10.014;2023-05-10T15:10:26;17.10;99.90
10070;DHT22;5074;53.720;10.014;2023-05-10T15:12:54;17.00;99.90
10070;DHT22;5074;53.720;10.014;2023-05-10T15:15:22;17.10;99.90
10070;DHT22;5074;53.720;10.014;2023-05-10T15:17:50;17.10;99.90
10070;DHT22;5074;53.720;10.014;2023-05-10T15:20:18;17.30;99.90
10070;DHT22;5074;53.720;10.014;2023-05-10T15:22:46;17.60;99.90
10070;DHT22;5074;53.720;10.014;2023-05-10T15:25:16;17.80;99.90
10070;DHT22;5074;53.720;10.014;2023-05-10T15:27:44;18.10;99.90
10070;DHT22;5074;53.720;10.014;2023-05-10T15:30:12;18.10;99.90
10070;DHT22;5074;53.720;10.014;2023-05-10T15:32:40;18.40;99.90
10070;DHT22;5074;53.720;10.014;2023-05-10T15:35:09;18.60;99.90
10070;DHT22;5074;53.720;10.014;2023-05-10T15:37:37;18.60;99.90
10070;DHT22;5074;53.720;10.014;2023-05-10T15:40:06;18.50;99.90
10070;DHT22;5074;53.720;10.014;2023-05-10T15:42:36;18.40;99.90
10070;DHT22;5074;53.720;10.014;2023-05-10T15:45:04;18.10;99.90
10070;DHT22;5074;53.720;10.014;2023-05-10T15:47:32;18.00;99.90
10070;DHT22;5074;53.720;10.014;2023-05-10T15:50:01;17.90;99.90
10070;DHT22;5074;53.720;10.014;2023-05-10T15:52:29;17.90;99.90
10070;DHT22;5074;53.720;10.014;2023-05-10T15:54:57;18.00;99.90